Time;durP1;ratioP1;P1;durP2;ratioP2;P2;SDS_P1;SDS_P2;PMS_P1;PMS_P2;Temp;Humidity;BMP_temperature;BMP_pressure;BME280_temperature;BME280_humidity;BME280_pressure;Samples;Min_cycle;Max_cycle;Signal;HPM_P1;HPM_P2
2021/12/18 00:01:32;;;;;;;46.23;24.07;;;8.50;99.90;;;;;;6310928;22;20179;-93
2021/12/18 00:03:59;;;;;;;42.60;24.23;;;8.50;99.90;;;;;;6323912;22;20150;-93
2021/12/18 00:06:27;;;;;;;43.37;24.27;;;8.50;99.90;;;;;;6315499;22;20577;-93
2021/12/18 00:08:54;;;;;;;40.67;23.83;;;8.70;99.90;;;;;;6312862;22;20172;-93
2021/12/18 00:11:19;;;;;;;42.97;24.67;;;8.60;99.90;;;;;;6311970;22;20235;-95
2021/12/18 00:13:45;;;;;;;39.43;23.43;;;8.60;99.90;;;;;;6311020;22;20157;-94
2021/12/18 00:16:10;;;;;;;44.00;24.60;;;8.60;99.90;;;;;;6311462;22;20155;-94
2021/12/18 00:18:36;;;;;;;45.40;24.07;;;8.60;99.90;;;;;;6311063;22;20165;-95
2021/12/18 00:21:04;;;;;;;41.23;23.53;;;8.70;99.90;;;;;;6310525;22;20156;-94
2021/12/18 00:23:30;;;;;;;43.73;25.20;;;8.70;99.90;;;;;;6312534;22;20191;-92
2021/12/18 00:25:55;;;;;;;43.33;23.77;;;8.70;99.90;;;;;;6312791;22;20227;-93
2021/12/18 00:28:21;;;;;;;46.00;24.00;;;8.80;99.90;;;;;;6313193;22;20211;-93
2021/12/18 00:30:47;;;;;;;41.10;23.20;;;8.80;99.90;;;;;;6313030;22;20246;-94
2021/12/18 00:33:12;;;;;;;42.33;23.33;;;8.80;99.90;;;;;;6313035;22;20603;-93
2021/12/18 00:35:39;;;;;;;46.80;25.77;;;8.90;99.90;;;;;;6312499;22;20528;-92
2021/12/18 00:38:07;;;;;;;49.10;27.27;;;9.10;99.90;;;;;;6312782;22;20232;-93
2021/12/18 00:40:45;;;;;;;48.70;26.40;;;9.20;99.90;;;;;;6312645;22;20198;-93
2021/12/18 00:43:32;;;;;;;48.70;26.97;;;9.20;99.90;;;;;;6313022;22;20242;-93
2021/12/18 00:45:58;;;;;;;50.97;26.40;;;9.20;99.90;;;;;;6319046;22;20175;-92
2021/12/18 00:48:24;;;;;;;52.77;27.47;;;9.40;99.90;;;;;;6312415;22;20145;-93
2021/12/18 00:50:50;;;;;;;54.23;27.27;;;9.30;99.90;;;;;;6312511;22;20227;-92
2021/12/18 00:53:16;;;;;;;50.70;27.90;;;9.40;99.90;;;;;;6312789;22;20590;-93
2021/12/18 00:55:43;;;;;;;54.33;29.80;;;9.40;99.90;;;;;;6312649;22;20231;-93
2021/12/18 00:58:08;;;;;;;55.57;29.37;;;9.40;99.90;;;;;;6316258;22;20217;-94
2021/12/18 01:00:35;;;;;;;57.27;29.53;;;9.50;99.90;;;;;;6314999;22;20175;-94
2021/12/18 01:03:02;;;;;;;60.33;30.93;;;9.60;99.90;;;;;;6314539;22;20250;-94
2021/12/18 01:05:30;;;;;;;55.77;29.77;;;9.60;99.90;;;;;;6314147;22;20150;-95
2021/12/18 01:07:57;;;;;;;56.47;29.50;;;9.70;99.90;;;;;;6313297;22;20235;-92
2021/12/18 01:10:52;;;;;;;57.00;31.10;;;9.50;99.90;;;;;;6312838;22;20194;-89
2021/12/18 01:13:22;;;;;;;57.47;29.30;;;9.50;99.90;;;;;;6312605;22;20141;-91
2021/12/18 01:15:52;;;;;;;57.87;29.40;;;9.30;99.90;;;;;;6312263;22;20604;-88
2021/12/18 01:23:46;;;;;;;57.50;30.50;;;9.40;99.90;;;;;;6339829;22;20180;-90
2021/12/18 01:26:13;;;;;;;59.33;30.50;;;9.50;99.90;;;;;;6312169;22;20137;-89
2021/12/18 01:28:39;;;;;;;58.83;31.87;;;9.50;99.90;;;;;;6312906;22;20248;-91
2021/12/18 01:31:05;;;;;;;62.10;32.23;;;9.50;99.90;;;;;;6312435;22;20152;-90
2021/12/18 01:33:32;;;;;;;67.37;31.17;;;9.60;99.90;;;;;;6312076;22;20149;-89
2021/12/18 01:36:00;;;;;;;65.67;32.97;;;9.60;99.90;;;;;;6312361;22;20218;-90
2021/12/18 01:38:31;;;;;;;66.43;32.87;;;9.50;99.90;;;;;;6312664;22;20577;-91
2021/12/18 01:40:58;;;;;;;64.70;34.00;;;9.60;99.90;;;;;;6311744;22;20163;-89
2021/12/18 01:46:30;;;;;;;62.30;33.43;;;9.60;99.90;;;;;;6339468;22;20187;-90
2021/12/18 01:54:12;;;;;;;63.67;32.47;;;9.50;99.90;;;;;;6350527;22;20562;-89
2021/12/18 01:56:38;;;;;;;68.70;33.47;;;9.40;99.90;;;;;;6312340;22;20247;-91
2021/12/18 01:59:03;;;;;;;65.20;33.03;;;9.40;99.90;;;;;;6312486;22;20605;-88
2021/12/18 02:01:29;;;;;;;63.33;32.17;;;9.50;99.90;;;;;;6312405;22;20695;-90
2021/12/18 02:03:55;;;;;;;66.33;34.00;;;9.60;99.90;;;;;;6312094;22;20187;-91
2021/12/18 02:06:23;;;;;;;66.03;32.90;;;9.60;99.90;;;;;;6312077;22;20652;-88
2021/12/18 02:08:49;;;;;;;64.13;32.47;;;9.60;99.90;;;;;;6312251;22;20145;-89
2021/12/18 02:14:10;;;;;;;61.83;32.60;;;9.80;99.90;;;;;;6350487;22;20157;-89
2021/12/18 02:22:15;;;;;;;61.67;32.13;;;9.50;99.90;;;;;;6339260;22;20674;-90
2021/12/18 02:24:43;;;;;;;66.83;33.30;;;9.50;99.90;;;;;;6312241;22;20151;-90
2021/12/18 02:27:09;;;;;;;68.80;31.80;;;9.50;99.90;;;;;;6311975;22;20187;-91
2021/12/18 02:29:37;;;;;;;62.63;31.73;;;9.60;99.90;;;;;;6312317;22;20161;-90
2021/12/18 02:32:05;;;;;;;58.57;31.17;;;9.50;99.90;;;;;;6311661;22;20145;-90
2021/12/18 02:34:33;;;;;;;70.07;32.83;;;9.50;99.90;;;;;;6312229;22;20149;-88
2021/12/18 02:37:04;;;;;;;59.43;30.47;;;9.50;99.90;;;;;;6312263;22;20574;-90
2021/12/18 02:39:45;;;;;;;63.43;30.03;;;9.60;99.90;;;;;;6312157;22;20581;-91
2021/12/18 02:44:39;;;;;;;64.57;31.90;;;9.60;99.90;;;;;;6349674;22;20199;-90
2021/12/18 02:47:06;;;;;;;63.67;33.13;;;9.60;99.90;;;;;;6311915;22;20190;-91
2021/12/18 02:49:32;;;;;;;66.30;32.73;;;9.70;99.90;;;;;;6311938;22;20517;-90
2021/12/18 02:51:58;;;;;;;67.30;32.20;;;9.70;99.90;;;;;;6312030;22;20167;-89
2021/12/18 02:54:24;;;;;;;61.67;31.47;;;9.60;99.90;;;;;;6311659;22;20172;-91
2021/12/18 02:56:50;;;;;;;60.93;32.43;;;9.50;99.90;;;;;;6311939;22;20161;-92
2021/12/18 02:59:17;;;;;;;66.70;31.47;;;9.50;99.90;;;;;;6311434;22;20160;-91
2021/12/18 03:01:43;;;;;;;67.33;32.83;;;9.50;99.90;;;;;;6312086;22;20163;-91
2021/12/18 03:04:18;;;;;;;68.63;32.70;;;9.50;99.90;;;;;;6311481;22;20171;-89
2021/12/18 03:06:48;;;;;;;64.27;33.07;;;9.50;99.90;;;;;;6312039;22;20140;-90
2021/12/18 03:20:59;;;;;;;53.97;29.23;;;9.70;99.90;;;;;;6339163;22;20237;-90
2021/12/18 03:25:36;;;;;;;62.00;31.27;;;9.60;99.90;;;;;;6349504;22;20463;-89
2021/12/18 03:28:05;;;;;;;62.33;30.03;;;9.70;99.90;;;;;;6311131;22;20168;-89
2021/12/18 03:30:33;;;;;;;58.30;28.40;;;9.60;99.90;;;;;;6311731;22;20153;-88
2021/12/18 03:32:59;;;;;;;55.17;29.10;;;9.50;99.90;;;;;;6311921;22;20186;-88
2021/12/18 03:35:25;;;;;;;59.70;29.00;;;9.60;99.90;;;;;;6311381;22;20422;-90
2021/12/18 03:37:51;;;;;;;60.73;30.47;;;9.70;99.90;;;;;;6311569;22;20591;-89
2021/12/18 03:40:20;;;;;;;52.27;27.63;;;9.60;99.90;;;;;;6310712;22;20176;-89
2021/12/18 03:42:46;;;;;;;57.17;28.83;;;9.50;99.90;;;;;;6311382;22;20219;-89
2021/12/18 03:45:13;;;;;;;57.93;28.40;;;9.50;99.90;;;;;;6311283;22;20137;-90
2021/12/18 03:47:40;;;;;;;48.43;24.97;;;9.50;99.90;;;;;;6311522;22;20578;-90
2021/12/18 03:50:06;;;;;;;51.93;25.93;;;9.50;99.90;;;;;;6311589;22;20712;-90
2021/12/18 03:52:32;;;;;;;52.30;26.60;;;9.50;99.90;;;;;;6311499;22;20145;-90
2021/12/18 03:54:59;;;;;;;45.80;24.10;;;9.40;99.90;;;;;;6311397;22;20161;-90
2021/12/18 03:57:25;;;;;;;46.43;23.87;;;9.50;99.90;;;;;;6312808;22;20174;-90
2021/12/18 03:59:51;;;;;;;46.53;24.27;;;9.40;99.90;;;;;;6313699;22;20586;-89
2021/12/18 04:02:17;;;;;;;49.93;24.37;;;9.50;99.90;;;;;;6313293;22;20248;-88
2021/12/18 04:04:42;;;;;;;48.50;23.73;;;9.60;99.90;;;;;;6313491;22;20463;-90
2021/12/18 04:07:08;;;;;;;43.07;22.80;;;9.60;99.90;;;;;;6313811;22;20153;-89
2021/12/18 04:09:34;;;;;;;45.23;23.07;;;9.70;99.90;;;;;;6313705;22;20145;-89
2021/12/18 04:12:01;;;;;;;42.30;21.43;;;9.60;99.90;;;;;;6313161;22;20364;-90
2021/12/18 04:14:27;;;;;;;46.70;23.43;;;9.50;99.90;;;;;;6339219;22;20145;-90
2021/12/18 04:16:52;;;;;;;43.37;22.93;;;9.40;99.90;;;;;;6313388;22;20145;-85
2021/12/18 04:19:19;;;;;;;44.30;22.13;;;9.50;99.90;;;;;;6313025;22;20145;-86
2021/12/18 04:21:46;;;;;;;44.87;22.10;;;9.60;99.90;;;;;;6312978;22;20141;-90
2021/12/18 04:24:12;;;;;;;40.80;22.13;;;9.60;99.90;;;;;;6313766;22;20168;-89
2021/12/18 04:26:38;;;;;;;41.50;21.53;;;9.50;99.90;;;;;;6313309;22;20141;-90
2021/12/18 04:29:08;;;;;;;40.13;21.40;;;9.70;99.90;;;;;;6313368;22;20578;-89
2021/12/18 04:31:36;;;;;;;42.60;21.60;;;9.60;99.90;;;;;;6313051;22;20515;-89
2021/12/18 04:34:02;;;;;;;41.73;20.77;;;9.60;99.90;;;;;;6313294;22;20145;-89
2021/12/18 04:36:28;;;;;;;41.63;22.17;;;9.50;99.90;;;;;;6313231;22;20147;-90
2021/12/18 04:38:53;;;;;;;42.70;21.43;;;9.50;99.90;;;;;;6313315;22;20155;-91
2021/12/18 04:41:35;;;;;;;41.23;21.27;;;9.50;99.90;;;;;;6312498;22;20628;-91
2021/12/18 04:44:02;;;;;;;39.83;20.20;;;9.50;99.90;;;;;;6313440;22;20206;-88
2021/12/18 04:46:28;;;;;;;42.53;20.60;;;9.50;99.90;;;;;;6313028;22;20137;-89
2021/12/18 04:48:54;;;;;;;37.80;19.83;;;9.50;99.90;;;;;;6313378;22;20232;-91
2021/12/18 04:51:19;;;;;;;42.10;21.30;;;9.30;99.90;;;;;;6313211;22;20138;-91
2021/12/18 04:53:45;;;;;;;43.17;21.90;;;9.30;99.90;;;;;;6313337;22;20562;-91
2021/12/18 04:56:10;;;;;;;43.93;21.83;;;9.40;99.90;;;;;;6312552;22;20183;-91
2021/12/18 04:58:36;;;;;;;46.07;22.50;;;9.40;99.90;;;;;;6313161;22;20151;-91
2021/12/18 05:01:02;;;;;;;47.43;23.77;;;9.40;99.90;;;;;;6313026;22;20150;-91
2021/12/18 05:03:28;;;;;;;48.13;24.73;;;9.40;99.90;;;;;;6313205;22;20184;-89
2021/12/18 05:05:54;;;;;;;51.37;24.67;;;9.50;99.90;;;;;;6312958;22;20177;-91
2021/12/18 05:08:20;;;;;;;48.20;25.93;;;9.50;99.90;;;;;;6312706;22;20232;-91
2021/12/18 05:10:46;;;;;;;49.63;25.87;;;9.50;99.90;;;;;;6312442;22;20149;-90
2021/12/18 05:13:11;;;;;;;48.77;25.37;;;9.70;99.90;;;;;;6312810;22;20138;-90
2021/12/18 05:15:37;;;;;;;56.60;27.77;;;9.60;99.90;;;;;;6312821;22;20193;-91
2021/12/18 05:18:03;;;;;;;56.27;26.57;;;9.60;99.90;;;;;;6312887;22;20210;-91
2021/12/18 05:20:29;;;;;;;54.53;27.40;;;9.60;99.90;;;;;;6312992;22;20226;-90
2021/12/18 05:22:54;;;;;;;51.53;26.93;;;9.60;99.90;;;;;;6312575;22;20613;-90
2021/12/18 05:25:20;;;;;;;53.20;26.30;;;9.80;99.90;;;;;;6312683;22;20470;-91
2021/12/18 05:27:45;;;;;;;59.90;27.83;;;9.70;99.90;;;;;;6312436;22;20190;-91
2021/12/18 05:30:12;;;;;;;55.10;26.70;;;9.60;99.90;;;;;;6312621;22;20643;-90
2021/12/18 05:32:38;;;;;;;57.00;26.93;;;9.60;99.90;;;;;;6312704;22;20149;-90
2021/12/18 05:35:07;;;;;;;57.27;26.20;;;9.70;99.90;;;;;;6312716;22;20175;-89
2021/12/18 05:37:46;;;;;;;55.70;26.70;;;9.50;99.90;;;;;;6312707;22;20179;-91
2021/12/18 05:40:14;;;;;;;56.27;27.00;;;9.40;99.90;;;;;;6312312;22;20510;-91
2021/12/18 05:42:40;;;;;;;58.03;27.00;;;9.40;99.90;;;;;;6312488;22;20214;-90
2021/12/18 05:45:07;;;;;;;53.83;26.90;;;9.40;99.90;;;;;;6312804;22;20195;-91
2021/12/18 05:47:33;;;;;;;55.33;27.50;;;9.40;99.90;;;;;;6338417;22;20170;-92
2021/12/18 05:49:59;;;;;;;54.20;26.20;;;9.40;99.90;;;;;;6312226;22;20198;-91
2021/12/18 05:52:25;;;;;;;61.57;26.57;;;9.30;99.90;;;;;;6312242;22;20221;-91
2021/12/18 05:54:50;;;;;;;59.33;26.40;;;9.40;99.90;;;;;;6312035;22;20173;-89
2021/12/18 05:57:16;;;;;;;56.60;27.13;;;9.60;99.90;;;;;;6312589;22;20144;-90
2021/12/18 05:59:42;;;;;;;55.30;26.80;;;9.60;99.90;;;;;;6312735;22;20164;-90
2021/12/18 06:02:08;;;;;;;60.70;27.13;;;9.60;99.90;;;;;;6312143;22;20170;-89
2021/12/18 06:04:34;;;;;;;56.40;25.70;;;9.60;99.90;;;;;;6312315;22;20153;-91
2021/12/18 06:07:06;;;;;;;59.73;27.63;;;9.60;99.90;;;;;;6312312;22;20161;-91
2021/12/18 06:09:36;;;;;;;65.57;27.93;;;9.70;99.90;;;;;;6311857;22;20143;-91
2021/12/18 06:12:03;;;;;;;61.57;25.57;;;9.60;99.90;;;;;;6312195;22;20152;-90
2021/12/18 06:14:29;;;;;;;60.07;25.83;;;9.60;99.90;;;;;;6312622;22;20158;-91
2021/12/18 06:16:54;;;;;;;59.40;25.43;;;9.60;99.90;;;;;;6312540;22;20224;-89
2021/12/18 06:19:21;;;;;;;65.53;26.33;;;9.60;99.90;;;;;;6311859;22;20181;-91
2021/12/18 06:21:47;;;;;;;59.67;27.17;;;9.50;99.90;;;;;;6311864;22;20226;-90
2021/12/18 06:24:12;;;;;;;61.57;27.30;;;9.60;99.90;;;;;;6312324;22;20526;-90
2021/12/18 06:26:38;;;;;;;59.70;26.93;;;9.70;99.90;;;;;;6312509;22;20158;-90
2021/12/18 06:29:04;;;;;;;62.73;28.83;;;9.60;99.90;;;;;;6311595;22;20488;-91
2021/12/18 06:31:31;;;;;;;66.37;27.30;;;9.50;99.90;;;;;;6312078;22;20152;-90
2021/12/18 06:33:57;;;;;;;64.07;29.10;;;9.60;99.90;;;;;;6339519;22;20130;-91
2021/12/18 06:36:22;;;;;;;67.73;29.37;;;9.60;99.90;;;;;;6311770;22;20197;-90
2021/12/18 06:38:48;;;;;;;68.93;29.80;;;9.40;99.90;;;;;;6312238;22;20153;-89
2021/12/18 06:41:13;;;;;;;64.10;27.17;;;9.30;99.90;;;;;;6311924;22;20169;-91
2021/12/18 06:43:39;;;;;;;68.93;28.37;;;9.30;99.90;;;;;;6311541;22;20512;-91
2021/12/18 06:46:06;;;;;;;59.60;26.67;;;9.30;99.90;;;;;;6311910;22;20153;-91
2021/12/18 06:48:32;;;;;;;59.37;25.90;;;9.60;99.90;;;;;;6311165;22;20206;-90
2021/12/18 06:50:58;;;;;;;57.50;26.50;;;9.50;99.90;;;;;;6311776;22;20133;-89
2021/12/18 06:53:24;;;;;;;55.03;24.37;;;9.50;99.90;;;;;;6311241;22;20148;-91
2021/12/18 06:55:49;;;;;;;56.20;24.13;;;9.60;99.90;;;;;;6311769;22;20165;-90
2021/12/18 06:58:15;;;;;;;53.63;23.60;;;9.60;99.90;;;;;;6311287;22;20153;-89
2021/12/18 07:00:41;;;;;;;52.80;23.43;;;9.50;99.90;;;;;;6311648;22;20171;-90
2021/12/18 07:03:07;;;;;;;59.20;24.60;;;9.50;99.90;;;;;;6338728;22;20168;-91
2021/12/18 07:05:33;;;;;;;50.07;24.47;;;9.50;99.90;;;;;;6311219;22;20140;-91
2021/12/18 07:07:59;;;;;;;55.80;23.67;;;9.60;99.90;;;;;;6311678;22;20157;-90
2021/12/18 07:10:24;;;;;;;52.33;22.53;;;9.60;99.90;;;;;;6311672;22;20534;-91
2021/12/18 07:12:50;;;;;;;49.73;22.27;;;9.60;99.90;;;;;;6311028;22;20145;-91
2021/12/18 07:15:16;;;;;;;51.13;23.73;;;9.50;99.90;;;;;;6311123;22;20160;-89
2021/12/18 07:17:42;;;;;;;51.40;23.63;;;9.50;99.90;;;;;;6311661;22;20176;-90
2021/12/18 07:20:09;;;;;;;54.17;24.57;;;9.50;99.90;;;;;;6310189;22;20487;-91
2021/12/18 07:22:35;;;;;;;54.90;24.60;;;9.50;99.90;;;;;;6311885;22;20187;-92
2021/12/18 07:25:01;;;;;;;65.03;27.63;;;9.40;99.90;;;;;;6312403;22;20149;-90
2021/12/18 07:27:26;;;;;;;55.70;25.47;;;9.40;99.90;;;;;;6311782;22;20145;-92
2021/12/18 07:29:52;;;;;;;60.17;26.77;;;9.30;99.90;;;;;;6311598;22;20195;-91
2021/12/18 07:32:17;;;;;;;59.10;27.23;;;9.40;99.90;;;;;;6311843;22;20176;-92
2021/12/18 07:34:43;;;;;;;55.17;25.97;;;9.50;99.90;;;;;;6311115;22;20566;-91
2021/12/18 07:37:09;;;;;;;59.27;25.20;;;9.50;99.90;;;;;;6308074;22;20157;-90
2021/12/18 07:39:38;;;;;;;61.77;26.57;;;9.60;99.90;;;;;;6306812;22;20633;-91
2021/12/18 07:42:03;;;;;;;59.63;24.87;;;9.50;99.90;;;;;;6310798;22;20161;-93
2021/12/18 07:44:32;;;;;;;55.43;25.27;;;9.50;99.90;;;;;;6311462;22;20578;-91
2021/12/18 07:46:58;;;;;;;60.93;24.80;;;9.60;99.90;;;;;;6311401;22;20145;-92
2021/12/18 07:49:23;;;;;;;62.80;27.00;;;9.50;99.90;;;;;;6310936;22;20158;-93
2021/12/18 07:51:54;;;;;;;60.03;25.07;;;9.50;99.90;;;;;;6311464;22;20149;-92
2021/12/18 07:54:20;;;;;;;59.50;25.00;;;9.60;99.90;;;;;;6310189;22;20157;-93
2021/12/18 07:56:46;;;;;;;57.60;26.43;;;9.50;99.90;;;;;;6309847;22;20600;-92
2021/12/18 07:59:11;;;;;;;63.73;26.83;;;9.50;99.90;;;;;;6337640;22;20241;-91
2021/12/18 08:01:37;;;;;;;62.70;27.37;;;9.40;99.90;;;;;;6310070;22;20254;-91
2021/12/18 08:04:02;;;;;;;64.63;26.13;;;9.50;99.90;;;;;;6337567;22;20169;-91
2021/12/18 08:06:28;;;;;;;60.37;26.33;;;9.50;99.90;;;;;;6310081;22;20141;-93
2021/12/18 08:08:53;;;;;;;55.10;25.83;;;9.50;99.90;;;;;;6310834;22;20196;-92
2021/12/18 08:11:19;;;;;;;59.97;25.63;;;9.60;99.90;;;;;;6308612;22;20220;-91
2021/12/18 08:13:45;;;;;;;57.70;26.27;;;9.70;99.90;;;;;;6307048;22;20149;-91
2021/12/18 08:16:10;;;;;;;54.80;24.73;;;9.70;99.90;;;;;;6309787;22;20149;-90
2021/12/18 08:18:36;;;;;;;57.23;24.70;;;9.60;99.90;;;;;;6309452;22;20582;-92
2021/12/18 08:21:01;;;;;;;57.37;25.07;;;9.60;99.90;;;;;;6309004;22;20283;-90
2021/12/18 08:23:27;;;;;;;59.93;24.97;;;9.50;99.90;;;;;;6310109;22;20230;-92
2021/12/18 08:25:53;;;;;;;64.57;26.17;;;9.50;99.90;;;;;;6310511;22;20137;-91
2021/12/18 08:28:19;;;;;;;60.70;25.63;;;9.60;99.90;;;;;;6310734;22;20191;-90
2021/12/18 08:30:44;;;;;;;61.47;24.07;;;9.50;99.90;;;;;;6309957;22;20150;-91
2021/12/18 08:33:10;;;;;;;61.37;25.60;;;9.40;99.90;;;;;;6310310;22;20444;-91
2021/12/18 08:35:36;;;;;;;63.17;24.83;;;9.50;99.90;;;;;;6310419;22;20547;-92
2021/12/18 08:38:04;;;;;;;57.73;24.07;;;9.50;99.90;;;;;;6309626;22;20155;-92
2021/12/18 08:40:31;;;;;;;63.13;24.43;;;9.60;99.90;;;;;;6309692;22;20642;-91
2021/12/18 11:02:04;;;;;;;45.27;18.77;;;9.80;99.90;;;;;;6302275;22;20641;-87
2021/12/18 11:04:35;;;;;;;45.10;18.93;;;9.90;99.90;;;;;;6309428;22;20188;-83
2021/12/18 11:07:19;;;;;;;49.93;19.80;;;9.90;99.90;;;;;;6336466;22;20513;-84
2021/12/18 11:09:59;;;;;;;51.90;21.13;;;10.00;99.90;;;;;;6337874;22;20155;-83
2021/12/18 11:15:10;;;;;;;46.83;19.70;;;9.90;99.90;;;;;;6337961;22;20155;-85
2021/12/18 11:46:27;;;;;;;39.70;17.17;;;10.30;99.90;;;;;;6315573;22;20205;-93
2021/12/18 11:48:56;;;;;;;44.90;17.83;;;10.40;99.90;;;;;;6335305;22;20149;-90
2021/12/18 11:51:22;;;;;;;40.00;16.80;;;10.30;99.90;;;;;;6311444;22;20611;-95
2021/12/18 11:53:48;;;;;;;43.40;18.27;;;10.30;99.90;;;;;;6311366;22;20148;-93
2021/12/18 11:56:14;;;;;;;40.40;17.00;;;10.20;99.90;;;;;;6310555;22;20202;-94
2021/12/18 11:58:47;;;;;;;40.03;16.00;;;10.30;99.90;;;;;;6311207;22;20176;-95
2021/12/18 12:01:25;;;;;;;37.87;15.93;;;10.20;99.90;;;;;;6312162;22;20141;-88
2021/12/18 12:03:51;;;;;;;45.03;17.30;;;10.20;99.90;;;;;;6310849;22;20188;-88
2021/12/18 12:06:31;;;;;;;38.40;16.93;;;10.30;99.90;;;;;;6311515;22;20642;-92
2021/12/18 12:09:44;;;;;;;30.20;12.83;;;10.20;99.90;;;;;;6311343;22;20155;-89
2021/12/18 13:27:13;;;;;;;28.63;12.53;;;10.30;99.90;;;;;;6331839;22;20189;-87
2021/12/18 13:29:39;;;;;;;27.47;12.30;;;10.20;99.90;;;;;;6310492;22;20145;-88
2021/12/18 13:32:05;;;;;;;33.03;12.60;;;10.20;99.90;;;;;;6311314;22;20568;-88
2021/12/18 13:34:37;;;;;;;28.30;12.60;;;10.40;99.90;;;;;;6313010;22;20190;-89
2021/12/18 13:37:10;;;;;;;29.63;12.43;;;10.30;99.90;;;;;;6311698;22;20586;-89
2021/12/18 13:39:42;;;;;;;27.20;11.53;;;10.20;99.90;;;;;;6311771;22;20165;-89
2021/12/18 13:42:22;;;;;;;25.73;11.20;;;10.20;99.90;;;;;;6311161;22;20151;-88
2021/12/18 13:44:58;;;;;;;23.93;11.43;;;10.10;99.90;;;;;;6338796;22;20148;-88
2021/12/18 13:47:37;;;;;;;25.43;11.73;;;10.20;99.90;;;;;;6311791;22;20235;-88
2021/12/18 13:50:11;;;;;;;31.10;12.67;;;10.20;99.90;;;;;;6303998;22;20161;-88
2021/12/18 15:49:07;;;;;;;15.77;7.73;;;9.90;99.90;;;;;;6328942;22;20247;-93
2021/12/18 15:51:34;;;;;;;14.20;8.07;;;9.80;99.90;;;;;;6337402;22;20138;-91
2021/12/18 15:54:01;;;;;;;15.53;8.60;;;9.80;99.90;;;;;;6310496;22;20184;-87
2021/12/18 15:56:27;;;;;;;18.20;9.33;;;9.90;99.90;;;;;;6310513;22;20220;-89
2021/12/18 15:58:53;;;;;;;17.83;8.57;;;9.90;99.90;;;;;;6310526;22;20152;-90
2021/12/18 16:01:19;;;;;;;17.87;8.63;;;9.80;99.90;;;;;;6309900;22;20153;-88
2021/12/18 16:03:45;;;;;;;17.13;9.00;;;10.00;99.90;;;;;;6310197;22;20185;-88
2021/12/18 16:06:13;;;;;;;18.93;10.27;;;10.00;99.90;;;;;;6310641;22;20640;-90
2021/12/18 16:08:47;;;;;;;18.50;9.40;;;10.10;99.90;;;;;;6337201;22;20191;-88
2021/12/18 16:11:13;;;;;;;17.03;9.40;;;10.00;99.90;;;;;;6311110;22;20214;-93
2021/12/18 16:13:38;;;;;;;16.33;8.40;;;9.90;99.90;;;;;;6310985;22;20478;-91
2021/12/18 16:16:06;;;;;;;15.43;8.60;;;9.90;99.90;;;;;;6310832;22;20326;-87
2021/12/18 16:18:36;;;;;;;16.67;8.33;;;10.00;99.90;;;;;;6311611;22;20509;-90
2021/12/18 16:21:12;;;;;;;13.80;7.90;;;10.10;99.90;;;;;;6311221;22;20152;-90
2021/12/18 16:23:42;;;;;;;16.77;8.80;;;10.10;99.90;;;;;;6311656;22;20639;-92
2021/12/18 16:26:08;;;;;;;14.37;7.87;;;10.20;99.90;;;;;;6311584;22;20149;-91
2021/12/18 16:28:34;;;;;;;15.33;8.30;;;10.10;99.90;;;;;;6311324;22;20184;-92
2021/12/18 16:31:01;;;;;;;15.50;8.77;;;10.00;99.90;;;;;;6310922;22;20151;-90
2021/12/18 16:33:30;;;;;;;12.60;7.87;;;9.90;99.90;;;;;;6311244;22;20592;-88
2021/12/18 16:35:56;;;;;;;17.60;9.30;;;9.90;99.90;;;;;;6310737;22;20149;-89
2021/12/18 16:40:48;;;;;;;15.83;8.33;;;9.90;99.90;;;;;;6339534;22;20637;-93
2021/12/18 16:43:15;;;;;;;17.60;9.37;;;9.70;99.90;;;;;;6310870;22;20189;-91
2021/12/18 16:45:43;;;;;;;14.73;8.30;;;9.70;99.90;;;;;;6311472;22;20152;-87
2021/12/18 16:48:08;;;;;;;14.60;8.60;;;9.80;99.90;;;;;;6310716;22;20180;-88
2021/12/18 16:50:37;;;;;;;14.07;8.50;;;9.80;99.90;;;;;;6339312;22;20141;-91
2021/12/18 16:53:03;;;;;;;14.13;8.90;;;9.80;99.90;;;;;;6311461;22;20287;-91
2021/12/18 16:55:29;;;;;;;13.63;8.00;;;9.80;99.90;;;;;;6310899;22;20222;-92
2021/12/18 16:57:57;;;;;;;12.03;7.60;;;9.80;99.90;;;;;;6335064;22;20145;-89
2021/12/18 17:00:24;;;;;;;12.70;8.00;;;10.00;99.90;;;;;;6312690;22;20141;-86
2021/12/18 17:02:50;;;;;;;14.23;9.23;;;9.80;99.90;;;;;;6310135;22;20673;-91
2021/12/18 17:05:24;;;;;;;12.33;8.10;;;9.80;99.90;;;;;;6314444;22;20184;-89
2021/12/18 17:07:49;;;;;;;16.20;10.17;;;9.80;99.90;;;;;;6314613;22;20210;-91
2021/12/18 17:10:15;;;;;;;14.97;8.97;;;9.90;99.90;;;;;;6314919;22;20203;-91
2021/12/18 17:12:41;;;;;;;16.20;9.43;;;9.90;99.90;;;;;;6316047;22;20165;-91
2021/12/18 17:15:13;;;;;;;19.10;9.33;;;9.90;99.90;;;;;;6343617;22;20148;-91
2021/12/18 17:17:39;;;;;;;14.70;8.67;;;9.80;99.90;;;;;;6340157;22;20240;-90
2021/12/18 17:20:07;;;;;;;13.37;8.00;;;9.80;99.90;;;;;;6313539;22;20157;-91
2021/12/18 17:22:45;;;;;;;18.20;8.30;;;9.70;99.90;;;;;;6341149;22;20183;-91
2021/12/18 17:25:14;;;;;;;14.07;8.27;;;9.60;99.90;;;;;;6314771;22;20282;-90
2021/12/18 17:27:40;;;;;;;16.60;9.07;;;9.50;99.90;;;;;;6314349;22;20155;-91
2021/12/18 17:30:08;;;;;;;17.37;8.23;;;9.60;99.90;;;;;;6315056;22;20211;-91
2021/12/18 17:32:33;;;;;;;11.17;7.03;;;9.60;99.90;;;;;;6314373;22;20785;-92
2021/12/18 17:34:59;;;;;;;15.30;7.63;;;9.70;99.90;;;;;;6312612;22;20158;-89
2021/12/18 17:37:26;;;;;;;12.00;7.73;;;9.60;99.90;;;;;;6341400;22;20208;-90
2021/12/18 17:39:51;;;;;;;10.93;7.00;;;9.50;99.90;;;;;;6314816;22;20172;-91
2021/12/18 17:42:18;;;;;;;12.97;7.30;;;9.70;99.90;;;;;;6313336;22;20153;-90
2021/12/18 17:44:44;;;;;;;15.13;8.23;;;9.60;99.90;;;;;;6316690;22;20578;-91
2021/12/18 17:47:10;;;;;;;14.33;8.33;;;9.80;99.90;;;;;;6311124;22;20163;-93
2021/12/18 17:49:35;;;;;;;12.43;7.57;;;9.80;99.90;;;;;;6308646;22;20186;-90
2021/12/18 17:52:04;;;;;;;12.87;7.67;;;9.90;99.90;;;;;;6310717;22;20151;-91
2021/12/18 17:54:30;;;;;;;11.50;7.50;;;9.80;99.90;;;;;;6310084;22;20153;-91
2021/12/18 17:57:00;;;;;;;12.13;7.30;;;9.70;99.90;;;;;;6312319;22;20585;-90
2021/12/18 17:59:28;;;;;;;15.27;7.90;;;9.80;99.90;;;;;;6314144;22;20206;-91
2021/12/18 18:01:54;;;;;;;13.97;7.63;;;9.80;99.90;;;;;;6341205;22;20141;-90
2021/12/18 18:04:19;;;;;;;13.60;7.93;;;9.80;99.90;;;;;;6311490;22;20678;-90
2021/12/18 18:06:45;;;;;;;16.30;9.00;;;9.80;99.90;;;;;;6311971;22;20152;-91
2021/12/18 18:09:11;;;;;;;14.63;8.50;;;9.90;99.90;;;;;;6312522;22;20160;-91
2021/12/18 18:11:37;;;;;;;14.87;8.30;;;9.80;99.90;;;;;;6312637;22;20145;-89
2021/12/18 18:14:05;;;;;;;15.00;8.93;;;9.70;99.90;;;;;;6311769;22;20466;-91
2021/12/18 18:16:31;;;;;;;13.47;8.67;;;9.60;99.90;;;;;;6312125;22;20179;-91
2021/12/18 18:18:57;;;;;;;16.10;8.77;;;9.80;99.90;;;;;;6312994;22;20157;-90
2021/12/18 18:21:25;;;;;;;13.40;8.37;;;9.70;99.90;;;;;;6313363;22;20149;-90
2021/12/18 18:23:50;;;;;;;14.27;9.23;;;9.80;99.90;;;;;;6312358;22;20189;-91
2021/12/18 18:26:17;;;;;;;13.40;8.77;;;9.80;99.90;;;;;;6314403;22;20487;-88
2021/12/18 18:28:44;;;;;;;15.40;8.63;;;9.70;99.90;;;;;;6311626;22;20171;-89
2021/12/18 18:31:11;;;;;;;13.30;8.37;;;9.70;99.90;;;;;;6312363;22;20174;-87
2021/12/18 18:33:37;;;;;;;13.30;7.87;;;9.80;99.90;;;;;;6311903;22;20163;-84
2021/12/18 18:36:06;;;;;;;15.10;8.67;;;9.80;99.90;;;;;;6312398;22;20577;-84
2021/12/18 18:38:32;;;;;;;18.27;10.10;;;9.70;99.90;;;;;;6313510;22;20157;-83
2021/12/18 18:41:05;;;;;;;15.37;8.97;;;9.70;99.90;;;;;;6311276;22;20152;-84
2021/12/18 18:43:32;;;;;;;16.27;9.17;;;9.80;99.90;;;;;;6311132;22;20193;-84
2021/12/18 18:46:16;;;;;;;16.13;9.23;;;9.90;99.90;;;;;;6311660;22;20627;-84
2021/12/18 18:48:44;;;;;;;14.30;8.70;;;9.90;99.90;;;;;;6310264;22;20168;-84
2021/12/18 18:51:13;;;;;;;14.07;8.20;;;9.90;99.90;;;;;;6311378;22;20187;-83
2021/12/18 18:53:39;;;;;;;13.10;7.77;;;9.90;99.90;;;;;;6311779;22;20149;-84
2021/12/18 18:56:05;;;;;;;14.17;7.37;;;10.00;99.90;;;;;;6311185;22;20218;-84
2021/12/18 18:58:31;;;;;;;13.33;8.13;;;10.00;99.90;;;;;;6310051;22;20152;-83
2021/12/18 19:00:58;;;;;;;12.87;7.83;;;10.00;99.90;;;;;;6310955;22;20152;-83
2021/12/18 19:03:24;;;;;;;13.60;8.67;;;9.70;99.90;;;;;;6311465;22;20181;-83
2021/12/18 19:05:50;;;;;;;15.50;8.80;;;9.60;99.90;;;;;;6339520;22;20448;-84
2021/12/18 19:08:16;;;;;;;14.80;8.57;;;9.70;99.90;;;;;;6310374;22;20165;-84
2021/12/18 19:10:44;;;;;;;16.33;8.13;;;9.60;99.90;;;;;;6311128;22;20227;-84
2021/12/18 19:13:10;;;;;;;17.30;8.27;;;9.70;99.90;;;;;;6312018;22;20202;-84
2021/12/18 19:15:36;;;;;;;17.30;9.47;;;9.60;99.90;;;;;;6311547;22;20149;-84
2021/12/18 19:18:02;;;;;;;17.53;8.40;;;9.60;99.90;;;;;;6311026;22;20163;-84
2021/12/18 19:20:33;;;;;;;15.87;8.83;;;9.80;99.90;;;;;;6315490;22;20156;-83
2021/12/18 19:22:58;;;;;;;14.77;8.97;;;9.90;99.90;;;;;;6343338;22;20199;-84